createdAt,value
2023-03-22T00:00:14.961Z,100720.81
2023-03-22T00:02:43.602Z,100724.69
2023-03-22T00:05:12.216Z,100725.44
2023-03-22T00:07:41.426Z,100719.00
2023-03-22T00:10:12.156Z,100716.75
2023-03-22T00:12:40.792Z,100718.84
2023-03-22T00:15:11.217Z,100720.53
2023-03-22T00:17:39.815Z,100724.00
2023-03-22T00:20:10.027Z,100708.72
2023-03-22T00:22:38.654Z,100723.75
2023-03-22T00:25:08.101Z,100713.50
2023-03-22T00:27:38.120Z,100709.50
2023-03-22T00:30:08.005Z,100706.97
2023-03-22T00:32:37.319Z,100698.59
2023-03-22T00:35:07.305Z,100693.22
2023-03-22T00:37:38.660Z,100692.09
2023-03-22T00:40:09.456Z,100679.56
2023-03-22T00:42:40.343Z,100683.81
2023-03-22T00:45:11.341Z,100678.31
2023-03-22T00:47:40.323Z,100676.97
2023-03-22T00:50:09.957Z,100667.38
2023-03-22T00:52:38.561Z,100670.88
2023-03-22T00:55:07.810Z,100668.53
2023-03-22T00:57:36.361Z,100669.84
2023-03-22T01:00:11.517Z,100664.66
2023-03-22T01:02:40.160Z,100663.41
2023-03-22T01:05:09.667Z,100660.47
2023-03-22T01:07:41.659Z,100654.97
2023-03-22T01:10:11.629Z,100655.00
2023-03-22T01:12:40.635Z,100657.59
2023-03-22T01:15:12.253Z,100651.03
2023-03-22T01:17:40.802Z,100657.06
2023-03-22T01:20:11.187Z,100645.66
2023-03-22T01:22:39.764Z,100651.53
2023-03-22T01:25:09.524Z,100645.00
2023-03-22T01:27:38.384Z,100631.13
2023-03-22T01:30:09.720Z,100635.59
2023-03-22T01:32:39.321Z,100622.06
2023-03-22T01:35:08.733Z,100627.03
2023-03-22T01:37:37.463Z,100624.69
2023-03-22T01:40:07.381Z,100617.19
2023-03-22T01:42:37.040Z,100616.38
2023-03-22T01:45:44.107Z,100602.22
2023-03-22T01:48:23.018Z,100598.16
2023-03-22T01:51:04.026Z,100597.66
2023-03-22T01:53:36.798Z,100599.53
2023-03-22T01:56:06.494Z,100585.50
2023-03-22T01:58:37.678Z,100593.81
2023-03-22T02:01:08.847Z,100591.63
2023-03-22T02:03:48.128Z,100585.53
2023-03-22T02:06:17.300Z,100586.06
2023-03-22T02:08:45.995Z,100582.13
2023-03-22T02:11:18.158Z,100583.25
2023-03-22T02:14:09.137Z,100574.94
2023-03-22T02:16:49.766Z,100565.56
2023-03-22T02:19:45.713Z,100555.47
2023-03-22T02:22:41.811Z,100556.13
2023-03-22T02:25:36.710Z,100553.69
2023-03-22T02:28:24.360Z,100549.66
2023-03-22T02:31:31.610Z,100546.53
2023-03-22T02:34:27.721Z,100543.59
2023-03-22T02:37:29.799Z,100530.16
2023-03-22T02:40:05.724Z,100534.63
2023-03-22T02:42:45.312Z,100531.38
2023-03-22T02:45:19.248Z,100535.13
2023-03-22T02:47:56.748Z,100533.69
2023-03-22T02:50:29.859Z,100523.59
2023-03-22T02:53:06.028Z,100528.69
2023-03-22T02:55:40.393Z,100528.34
2023-03-22T02:58:16.370Z,100521.13
2023-03-22T03:00:47.101Z,100518.56
2023-03-22T03:03:18.456Z,100513.09
2023-03-22T03:05:52.844Z,100513.00
2023-03-22T03:08:23.781Z,100523.19
2023-03-22T03:10:55.306Z,100518.56
2023-03-22T03:13:24.201Z,100518.16
2023-03-22T03:15:57.392Z,100518.03
2023-03-22T03:18:35.840Z,100520.47
2023-03-22T03:21:14.876Z,100511.09
2023-03-22T03:23:53.908Z,100523.09
2023-03-22T03:26:31.204Z,100523.56
2023-03-22T03:29:05.173Z,100509.69
2023-03-22T03:31:40.432Z,100509.91
2023-03-22T03:34:17.788Z,100508.66
2023-03-22T03:36:52.044Z,100509.50
2023-03-22T03:39:23.071Z,100504.44
2023-03-22T03:41:54.483Z,100498.88
2023-03-22T03:44:23.679Z,100499.91
2023-03-22T03:46:53.585Z,100496.22
2023-03-22T03:49:24.262Z,100509.59
2023-03-22T03:51:54.949Z,100509.41
2023-03-22T03:54:24.563Z,100494.78
2023-03-22T03:56:54.772Z,100497.69
2023-03-22T03:59:23.377Z,100503.78
2023-03-22T04:01:52.773Z,100495.53
2023-03-22T04:04:26.909Z,100503.56
2023-03-22T04:06:57.789Z,100505.59
2023-03-22T04:09:27.350Z,100502.38
2023-03-22T04:11:58.262Z,100504.81
2023-03-22T04:14:27.402Z,100501.88
2023-03-22T04:16:56.679Z,100504.44
2023-03-22T04:19:26.014Z,100499.88
2023-03-22T04:21:55.147Z,100497.56
2023-03-22T04:24:24.097Z,100491.88
2023-03-22T04:26:53.492Z,100494.44
2023-03-22T04:29:24.571Z,100484.47
2023-03-22T04:31:53.852Z,100482.19
2023-03-22T04:34:22.199Z,100480.91
2023-03-22T04:36:51.075Z,100473.91
2023-03-22T04:39:19.713Z,100475.09
2023-03-22T04:41:48.369Z,100480.38
2023-03-22T04:44:16.941Z,100474.28
2023-03-22T04:46:46.914Z,100478.09
2023-03-22T04:49:15.829Z,100480.88
2023-03-22T04:51:44.825Z,100488.78
2023-03-22T04:54:13.362Z,100480.25
2023-03-22T04:56:41.955Z,100482.31
2023-03-22T04:59:10.892Z,100483.59
2023-03-22T05:01:40.830Z,100481.06
2023-03-22T05:04:10.804Z,100485.75
2023-03-22T05:06:39.415Z,100482.06
2023-03-22T05:09:08.137Z,100485.63
2023-03-22T05:11:36.799Z,100477.16
2023-03-22T05:14:05.800Z,100474.88
2023-03-22T05:16:34.462Z,100480.88
2023-03-22T05:19:03.471Z,100485.75
2023-03-22T05:21:37.009Z,100484.25
2023-03-22T05:24:06.082Z,100485.97
2023-03-22T05:26:38.091Z,100478.34
2023-03-22T05:29:07.220Z,100494.38
2023-03-22T05:31:35.833Z,100491.06
2023-03-22T05:34:04.670Z,100481.94
2023-03-22T05:36:36.587Z,100481.28
2023-03-22T05:39:05.593Z,100475.13
2023-03-22T05:41:36.513Z,100472.59
2023-03-22T05:44:05.832Z,100472.41
2023-03-22T05:46:34.467Z,100476.25
2023-03-22T05:49:03.030Z,100479.97
2023-03-22T05:51:32.963Z,100478.69
2023-03-22T05:54:01.502Z,100480.13
2023-03-22T05:56:30.069Z,100479.53
2023-03-22T05:58:59.460Z,100480.78
2023-03-22T06:01:28.136Z,100473.81
2023-03-22T06:03:56.681Z,100479.34
2023-03-22T06:06:28.058Z,100475.75
2023-03-22T06:09:10.577Z,100475.75
2023-03-22T06:11:44.827Z,100481.31
2023-03-22T06:14:13.577Z,100483.94
2023-03-22T06:16:42.184Z,100483.56
2023-03-22T06:19:10.758Z,100482.25
2023-03-22T06:21:39.323Z,100478.81
2023-03-22T06:24:09.400Z,100477.44
2023-03-22T06:26:37.949Z,100478.56
2023-03-22T06:29:06.590Z,100474.53
2023-03-22T06:31:35.140Z,100478.59
2023-03-22T06:34:03.824Z,100471.63
2023-03-22T06:36:32.699Z,100467.72
2023-03-22T06:39:02.812Z,100468.09
2023-03-22T06:41:32.824Z,100461.34
2023-03-22T06:44:02.624Z,100467.19
2023-03-22T06:46:31.271Z,100466.84
2023-03-22T06:48:59.823Z,100471.84
2023-03-22T06:51:28.385Z,100468.06
2023-03-22T06:53:57.010Z,100462.19
2023-03-22T06:56:25.623Z,100455.53
2023-03-22T06:58:58.002Z,100459.00
2023-03-22T07:01:26.703Z,100456.34
2023-03-22T07:03:55.239Z,100451.69
2023-03-22T07:06:23.797Z,100447.91
2023-03-22T07:08:52.322Z,100453.94
2023-03-22T07:11:20.907Z,100457.66
2023-03-22T07:13:49.493Z,100457.44
2023-03-22T07:16:20.377Z,100459.53
2023-03-22T07:18:49.313Z,100456.50
2023-03-22T07:21:17.921Z,100458.13
2023-03-22T07:23:46.637Z,100461.88
2023-03-22T07:26:15.394Z,100459.00
2023-03-22T07:28:44.703Z,100458.25
2023-03-22T07:31:14.500Z,100463.41
2023-03-22T07:33:44.722Z,100462.88
2023-03-22T07:36:13.933Z,100454.50
2023-03-22T07:38:42.473Z,100448.56
2023-03-22T07:41:11.168Z,100451.41
2023-03-22T07:43:52.745Z,100453.69
2023-03-22T07:46:24.130Z,100455.97
2023-03-22T07:48:54.013Z,100459.59
2023-03-22T07:51:22.615Z,100456.84
2023-03-22T07:53:51.196Z,100465.06
2023-03-22T07:56:19.776Z,100467.91
2023-03-22T07:58:48.364Z,100461.38
2023-03-22T08:01:17.014Z,100465.06
2023-03-22T08:03:45.590Z,100463.81
2023-03-22T08:06:16.452Z,100470.31
2023-03-22T08:08:45.014Z,100477.19
2023-03-22T08:11:13.684Z,100474.03
2023-03-22T08:13:42.216Z,100473.28
2023-03-22T08:16:11.224Z,100472.75
2023-03-22T08:18:39.807Z,100471.91
2023-03-22T08:21:08.611Z,100478.63
2023-03-22T08:23:42.144Z,100489.28
2023-03-22T08:26:11.969Z,100483.44
2023-03-22T08:28:40.509Z,100487.34
2023-03-22T08:31:15.124Z,100500.31
2023-03-22T08:33:44.332Z,100500.03
2023-03-22T08:36:15.630Z,100484.50
2023-03-22T08:38:45.800Z,100491.56
2023-03-22T08:41:15.951Z,100490.59
2023-03-22T08:43:44.665Z,100485.34
2023-03-22T08:46:13.258Z,100477.41
2023-03-22T08:48:41.860Z,100482.41
2023-03-22T08:51:10.684Z,100480.22
2023-03-22T08:53:39.579Z,100471.84
2023-03-22T08:56:10.422Z,100473.78
2023-03-22T08:58:38.964Z,100472.19
2023-03-22T09:01:07.884Z,100474.28
2023-03-22T09:03:36.566Z,100478.00
2023-03-22T09:06:05.609Z,100464.47
2023-03-22T09:08:34.330Z,100471.78
2023-03-22T09:11:03.265Z,100477.56
2023-03-22T09:13:33.176Z,100462.59
2023-03-22T09:16:01.936Z,100463.81
2023-03-22T09:18:30.930Z,100466.38
2023-03-22T09:20:59.518Z,100464.94
2023-03-22T09:23:30.397Z,100466.97
2023-03-22T09:26:02.451Z,100466.59
2023-03-22T09:28:32.752Z,100458.72
2023-03-22T09:31:02.591Z,100457.72
2023-03-22T09:33:31.634Z,100451.25
2023-03-22T09:36:00.212Z,100458.66
2023-03-22T09:38:32.539Z,100454.66
2023-03-22T09:41:04.544Z,100458.63
2023-03-22T09:43:37.061Z,100460.16
2023-03-22T09:46:09.750Z,100467.72
2023-03-22T09:48:42.439Z,100453.31
2023-03-22T09:51:28.871Z,100462.88
2023-03-22T09:53:57.657Z,100456.59
2023-03-22T09:56:30.966Z,100457.16
2023-03-22T09:59:08.941Z,100451.78
2023-03-22T10:01:43.258Z,100442.56
2023-03-22T10:04:19.353Z,100452.09
2023-03-22T10:06:59.882Z,100440.69
2023-03-22T10:09:36.297Z,100454.19
2023-03-22T10:12:13.546Z,100451.75
2023-03-22T10:14:51.094Z,100444.09
2023-03-22T10:17:24.197Z,100430.03
2023-03-22T10:19:57.657Z,100441.31
2023-03-22T10:22:30.944Z,100427.59
2023-03-22T10:25:01.239Z,100439.81
2023-03-22T10:27:32.680Z,100433.44
2023-03-22T10:30:08.307Z,100429.94
2023-03-22T10:32:56.823Z,100442.66
2023-03-22T10:35:26.648Z,100437.84
2023-03-22T10:37:58.455Z,100447.28
2023-03-22T10:40:29.906Z,100438.91
2023-03-22T10:43:02.215Z,100440.72
2023-03-22T10:45:35.993Z,100449.34
2023-03-22T10:48:08.268Z,100441.34
2023-03-22T10:50:39.176Z,100447.72
2023-03-22T10:53:12.140Z,100433.22
2023-03-22T10:55:42.606Z,100432.09
2023-03-22T10:58:15.735Z,100433.28
2023-03-22T11:00:50.080Z,100431.00
2023-03-22T11:03:31.900Z,100429.56
2023-03-22T11:06:02.594Z,100435.34
2023-03-22T11:08:39.293Z,100429.28
2023-03-22T11:11:08.203Z,100435.56
2023-03-22T11:13:37.779Z,100433.88
2023-03-22T11:16:08.654Z,100433.03
2023-03-22T11:18:37.476Z,100431.19
2023-03-22T11:21:10.968Z,100432.72
2023-03-22T11:23:43.485Z,100424.94
2023-03-22T11:26:14.114Z,100431.81
2023-03-22T11:28:47.712Z,100431.91
2023-03-22T11:31:19.894Z,100431.56
2023-03-22T11:33:57.971Z,100422.16
2023-03-22T11:36:28.036Z,100422.75
2023-03-22T11:39:00.494Z,100421.94
2023-03-22T11:41:30.900Z,100434.91
2023-03-22T11:44:02.795Z,100428.94
2023-03-22T11:46:34.332Z,100427.06
2023-03-22T11:49:07.404Z,100426.84
2023-03-22T11:51:38.857Z,100425.44
2023-03-22T11:54:11.926Z,100427.38
2023-03-22T11:56:44.682Z,100418.19
2023-03-22T11:59:16.847Z,100420.47
2023-03-22T12:01:52.662Z,100417.88
2023-03-22T12:04:25.593Z,100419.91
2023-03-22T12:06:57.397Z,100410.34
2023-03-22T12:09:36.872Z,100414.78
2023-03-22T12:12:10.996Z,100420.28
2023-03-22T12:14:46.431Z,100408.63
2023-03-22T12:17:25.683Z,100414.44
2023-03-22T12:20:06.223Z,100412.97
2023-03-22T12:22:36.923Z,100412.66
2023-03-22T12:25:12.182Z,100398.31
2023-03-22T12:27:44.843Z,100401.59
2023-03-22T12:30:16.717Z,100399.97
2023-03-22T12:32:52.143Z,100407.03
2023-03-22T12:35:24.919Z,100407.97
2023-03-22T12:37:56.885Z,100412.84
2023-03-22T12:40:29.537Z,100411.94
2023-03-22T12:43:07.535Z,100406.66
2023-03-22T12:45:42.351Z,100410.97
2023-03-22T12:48:18.849Z,100409.69
2023-03-22T12:50:53.079Z,100408.97
2023-03-22T12:53:23.997Z,100413.94
2023-03-22T12:55:53.717Z,100407.19
2023-03-22T12:58:24.437Z,100404.47
2023-03-22T13:00:58.124Z,100406.38
2023-03-22T13:03:37.735Z,100398.22
2023-03-22T13:06:18.639Z,100403.66
2023-03-22T13:09:04.334Z,100406.06
2023-03-22T13:11:32.933Z,100403.56
2023-03-22T13:14:01.578Z,100397.00
2023-03-22T13:16:51.165Z,100391.97
2023-03-22T13:19:30.068Z,100398.91
2023-03-22T13:22:21.072Z,100395.75
2023-03-22T13:25:17.175Z,100389.28
2023-03-22T13:27:53.878Z,100395.03
2023-03-22T13:30:27.004Z,100397.53
2023-03-22T13:33:03.488Z,100388.75
2023-03-22T13:35:45.171Z,100388.03
2023-03-22T13:38:22.404Z,100376.19
2023-03-22T13:40:58.146Z,100376.59
2023-03-22T13:43:31.821Z,100370.41
2023-03-22T13:46:12.468Z,100375.44
2023-03-22T13:49:00.784Z,100365.38
2023-03-22T13:51:33.338Z,100360.03
2023-03-22T13:54:08.033Z,100358.91
2023-03-22T13:56:52.947Z,100368.22
2023-03-22T13:59:27.331Z,100353.97
2023-03-22T14:02:00.970Z,100352.78
2023-03-22T14:04:35.629Z,100343.88
2023-03-22T14:07:13.189Z,100351.41
2023-03-22T14:09:46.369Z,100343.41
2023-03-22T14:12:20.935Z,100350.38
2023-03-22T14:14:56.080Z,100339.59
2023-03-22T14:17:35.343Z,100341.22
2023-03-22T14:20:10.541Z,100340.38
